createdAt,value
2022-10-16T00:01:40.891Z,19.40
2022-10-16T00:04:13.625Z,19.10
2022-10-16T00:06:45.778Z,21.40
2022-10-16T00:09:18.602Z,19.70
2022-10-16T00:11:51.696Z,17.10
2022-10-16T00:14:23.890Z,17.80
2022-10-16T00:16:56.105Z,17.60
2022-10-16T00:19:28.358Z,19.50
2022-10-16T00:22:00.478Z,22.40
2022-10-16T00:24:32.946Z,17.80
2022-10-16T00:27:05.157Z,20.50
2022-10-16T00:29:37.282Z,23.00
2022-10-16T00:32:09.601Z,18.10
2022-10-16T00:34:41.709Z,15.80
2022-10-16T00:37:13.894Z,18.00
2022-10-16T00:39:46.116Z,17.20
2022-10-16T00:42:20.708Z,19.40
2022-10-16T00:44:56.810Z,17.60
2022-10-16T00:47:33.660Z,20.80
2022-10-16T00:50:10.209Z,16.50
2022-10-16T00:52:46.786Z,18.10
2022-10-16T00:55:19.157Z,19.20
2022-10-16T00:57:52.312Z,17.50
2022-10-16T01:00:28.926Z,19.70
2022-10-16T01:03:03.124Z,18.40
2022-10-16T01:05:41.856Z,18.70
2022-10-16T01:08:21.077Z,19.30
2022-10-16T01:11:00.151Z,16.90
2022-10-16T01:13:39.605Z,16.50
2022-10-16T01:16:16.839Z,18.00
2022-10-16T01:18:54.784Z,18.80
2022-10-16T01:21:31.423Z,18.10
2022-10-16T01:24:11.189Z,18.00
2022-10-16T01:26:54.606Z,20.60
2022-10-16T01:29:30.250Z,18.10
2022-10-16T01:32:07.424Z,19.30
2022-10-16T01:34:44.426Z,18.70
2022-10-16T01:37:24.098Z,18.90
2022-10-16T01:40:01.358Z,16.30
2022-10-16T01:42:38.024Z,16.60
2022-10-16T01:45:15.419Z,18.80
2022-10-16T01:47:49.229Z,20.90
2022-10-16T01:50:23.157Z,19.60
2022-10-16T01:52:59.788Z,19.40
2022-10-16T01:55:35.365Z,18.60
2022-10-16T01:58:10.635Z,18.90
2022-10-16T02:00:47.487Z,20.10
2022-10-16T02:03:21.965Z,17.40
2022-10-16T02:05:57.863Z,20.30
2022-10-16T02:08:32.987Z,20.90
2022-10-16T02:11:05.360Z,18.60
2022-10-16T02:13:41.912Z,19.30
2022-10-16T02:16:15.847Z,18.80
2022-10-16T02:18:48.112Z,16.20
2022-10-16T02:21:28.777Z,19.40
2022-10-16T02:24:10.452Z,18.20
2022-10-16T02:26:51.240Z,16.90
2022-10-16T02:29:27.894Z,19.40
2022-10-16T02:32:04.387Z,19.50
2022-10-16T02:34:39.122Z,21.60
2022-10-16T02:37:11.825Z,17.50
2022-10-16T02:39:44.706Z,17.90
2022-10-16T02:42:19.849Z,19.10
2022-10-16T02:44:51.960Z,17.80
2022-10-16T02:47:24.223Z,17.10
2022-10-16T02:49:56.806Z,18.60
2022-10-16T02:52:29.276Z,18.90
2022-10-16T02:55:01.861Z,21.00
2022-10-16T02:57:37.953Z,17.40
2022-10-16T03:00:13.817Z,20.20
2022-10-16T03:05:17.782Z,18.30
2022-10-16T03:07:50.173Z,17.90
2022-10-16T03:10:22.310Z,19.20
2022-10-16T03:12:54.456Z,17.90
2022-10-16T03:15:27.023Z,19.60
2022-10-16T03:17:59.785Z,19.30
2022-10-16T03:20:31.882Z,19.00
2022-10-16T03:23:04.178Z,17.50
2022-10-16T03:25:36.369Z,17.10
2022-10-16T03:28:09.005Z,16.40
2022-10-16T03:30:41.831Z,16.70
2022-10-16T03:33:14.305Z,17.80
2022-10-16T03:35:55.163Z,21.30
2022-10-16T03:38:27.330Z,17.00
2022-10-16T03:40:59.421Z,18.10
2022-10-16T03:43:31.564Z,17.10
2022-10-16T03:46:03.825Z,18.00
2022-10-16T03:48:38.709Z,16.60
2022-10-16T03:51:10.873Z,16.30
2022-10-16T03:53:42.992Z,15.60
2022-10-16T03:56:15.202Z,16.30
2022-10-16T03:58:47.376Z,14.00
2022-10-16T04:01:19.672Z,14.00
2022-10-16T04:03:51.880Z,11.60
2022-10-16T04:06:24.251Z,12.70
2022-10-16T04:08:56.369Z,12.80
2022-10-16T04:11:28.545Z,10.90
2022-10-16T04:14:00.700Z,11.60
2022-10-16T04:16:32.985Z,10.70
2022-10-16T04:19:05.126Z,13.10
2022-10-16T04:21:37.400Z,13.70
2022-10-16T04:24:09.562Z,12.20
2022-10-16T04:26:41.704Z,13.00
2022-10-16T04:29:13.817Z,12.70
2022-10-16T04:31:45.973Z,11.00
2022-10-16T04:34:18.116Z,12.20
2022-10-16T04:36:52.395Z,12.70
2022-10-16T04:39:24.730Z,10.80
2022-10-16T04:41:56.966Z,11.70
2022-10-16T04:44:29.061Z,14.10
2022-10-16T04:47:01.254Z,11.90
2022-10-16T04:49:33.447Z,15.80
2022-10-16T04:52:06.158Z,14.70
2022-10-16T04:54:38.284Z,11.30
2022-10-16T04:57:10.481Z,12.80
2022-10-16T04:59:42.625Z,12.50
2022-10-16T05:02:14.819Z,15.70
2022-10-16T05:04:47.030Z,14.60
2022-10-16T05:07:19.255Z,14.50
2022-10-16T05:09:51.433Z,12.20
2022-10-16T05:12:23.694Z,10.60
2022-10-16T05:14:59.656Z,12.60
2022-10-16T05:17:32.272Z,12.50
2022-10-16T05:20:05.021Z,11.50
2022-10-16T05:22:37.217Z,10.50
2022-10-16T05:25:10.540Z,9.50
2022-10-16T05:27:42.648Z,11.60
2022-10-16T05:30:14.975Z,10.70
2022-10-16T05:32:50.508Z,11.80
2022-10-16T05:35:23.345Z,12.30
2022-10-16T05:37:56.678Z,8.80
2022-10-16T05:40:28.975Z,8.20
2022-10-16T05:43:01.197Z,10.20
2022-10-16T05:45:33.306Z,7.80
2022-10-16T05:48:05.732Z,9.40
2022-10-16T05:50:37.928Z,6.30
2022-10-16T05:53:10.040Z,8.70
2022-10-16T05:55:42.263Z,7.40
2022-10-16T05:58:14.437Z,7.90
2022-10-16T06:00:46.623Z,6.60
2022-10-16T06:03:18.857Z,7.40
2022-10-16T06:05:51.190Z,6.30
2022-10-16T06:08:25.020Z,6.70
2022-10-16T06:11:06.604Z,5.30
2022-10-16T06:13:40.120Z,5.70
2022-10-16T06:16:12.977Z,5.50
2022-10-16T06:18:45.437Z,5.70
2022-10-16T06:21:21.331Z,5.20
2022-10-16T06:23:54.133Z,5.80
2022-10-16T06:26:27.793Z,6.90
2022-10-16T06:29:01.776Z,5.80
2022-10-16T06:31:34.580Z,6.80
2022-10-16T06:34:10.477Z,7.30
2022-10-16T06:36:44.471Z,6.10
2022-10-16T06:39:16.589Z,6.30
2022-10-16T06:41:48.857Z,6.20
2022-10-16T06:44:21.085Z,6.90
2022-10-16T06:46:53.329Z,5.40
2022-10-16T06:49:25.599Z,5.20
2022-10-16T06:51:57.766Z,6.80
2022-10-16T06:54:29.976Z,6.60
2022-10-16T06:57:02.921Z,6.30
2022-10-16T06:59:35.028Z,5.20
2022-10-16T07:02:08.194Z,6.20
2022-10-16T07:04:42.422Z,6.50
2022-10-16T07:07:14.622Z,4.90
2022-10-16T07:09:46.745Z,7.40
2022-10-16T07:12:18.885Z,6.60
2022-10-16T07:14:53.253Z,6.70
2022-10-16T07:17:25.385Z,5.60
2022-10-16T07:19:57.483Z,5.30
2022-10-16T07:22:30.428Z,6.50
2022-10-16T07:25:02.532Z,7.40
2022-10-16T07:27:34.730Z,6.40
2022-10-16T07:30:09.213Z,7.10
2022-10-16T07:32:41.784Z,8.40
2022-10-16T07:35:14.067Z,7.60
2022-10-16T07:37:49.471Z,8.10
2022-10-16T07:40:21.657Z,6.80
2022-10-16T07:42:53.766Z,6.50
2022-10-16T07:45:25.933Z,6.20
2022-10-16T07:47:58.036Z,9.10
2022-10-16T07:50:30.157Z,5.10
2022-10-16T07:53:02.373Z,6.00
2022-10-16T07:55:35.779Z,5.00
2022-10-16T07:58:08.423Z,5.80
2022-10-16T08:00:41.341Z,7.80
2022-10-16T08:03:13.500Z,6.10
2022-10-16T08:05:45.745Z,5.90
2022-10-16T08:08:19.885Z,6.20
2022-10-16T08:10:52.252Z,5.40
2022-10-16T08:13:25.036Z,5.70
2022-10-16T08:15:57.896Z,8.10
2022-10-16T08:18:30.234Z,5.30
2022-10-16T08:21:03.054Z,6.40
2022-10-16T08:23:36.849Z,5.70
2022-10-16T08:26:10.412Z,5.20
2022-10-16T08:28:42.943Z,5.00
2022-10-16T08:33:55.139Z,5.20
2022-10-16T08:36:27.317Z,6.80
2022-10-16T08:38:59.495Z,6.10
2022-10-16T08:42:06.532Z,6.20
2022-10-16T08:45:17.273Z,8.00
2022-10-16T08:47:56.939Z,6.70
2022-10-16T08:50:34.406Z,7.90
2022-10-16T08:53:09.022Z,8.00
2022-10-16T08:55:47.653Z,6.10
2022-10-16T08:58:22.095Z,8.20
2022-10-16T09:00:58.352Z,7.50
2022-10-16T09:03:45.900Z,6.30
2022-10-16T09:06:29.119Z,8.20
2022-10-16T09:09:18.185Z,7.10
2022-10-16T09:11:56.065Z,7.80
2022-10-16T09:14:42.669Z,8.10
2022-10-16T09:17:29.643Z,8.30
2022-10-16T09:20:16.069Z,9.30
2022-10-16T09:22:48.541Z,8.40
2022-10-16T09:25:23.171Z,9.20
2022-10-16T09:27:57.992Z,9.90
2022-10-16T09:30:31.858Z,11.50
2022-10-16T09:33:05.177Z,12.50
2022-10-16T09:35:41.003Z,13.00
2022-10-16T09:38:25.366Z,11.80
2022-10-16T09:41:03.152Z,10.30
2022-10-16T09:43:41.747Z,11.40
2022-10-16T09:46:27.133Z,10.80
2022-10-16T09:49:01.751Z,10.00
2022-10-16T09:51:36.572Z,11.50
2022-10-16T09:54:19.018Z,11.30
2022-10-16T09:56:53.142Z,10.00
2022-10-16T09:59:27.789Z,11.50
2022-10-16T10:02:04.616Z,11.30
2022-10-16T10:04:47.144Z,12.10
2022-10-16T10:07:29.935Z,12.80
2022-10-16T10:10:03.543Z,13.20
2022-10-16T10:12:37.680Z,13.00
2022-10-16T10:15:14.240Z,12.70
2022-10-16T10:17:52.916Z,11.50
2022-10-16T10:20:32.171Z,12.90
2022-10-16T10:23:21.569Z,12.50
2022-10-16T10:26:01.956Z,12.60
2022-10-16T10:28:49.381Z,12.50
2022-10-16T10:31:29.638Z,11.50
2022-10-16T10:34:20.671Z,11.40
2022-10-16T10:37:04.818Z,12.60
2022-10-16T10:39:44.186Z,11.30
2022-10-16T10:42:28.776Z,12.90
2022-10-16T10:45:19.303Z,11.50
2022-10-16T10:48:08.700Z,14.30
2022-10-16T10:50:45.360Z,10.80
2022-10-16T10:53:28.871Z,11.90
2022-10-16T10:56:10.948Z,10.40
2022-10-16T10:59:04.336Z,13.00
2022-10-16T11:01:47.129Z,12.40
2022-10-16T11:04:52.108Z,13.20
2022-10-16T11:07:29.995Z,11.00
2022-10-16T11:10:08.229Z,11.30
2022-10-16T11:12:45.067Z,12.70
2022-10-16T11:15:21.155Z,9.50
2022-10-16T11:17:59.990Z,9.30
2022-10-16T11:20:34.734Z,10.10
2022-10-16T11:23:15.730Z,8.60
2022-10-16T11:25:51.144Z,10.60
2022-10-16T11:28:30.964Z,8.60
2022-10-16T11:31:10.749Z,9.40
2022-10-16T11:33:48.144Z,10.70
2022-10-16T11:36:26.708Z,7.90
2022-10-16T11:39:05.782Z,10.10
2022-10-16T11:41:44.621Z,8.50
2022-10-16T11:44:34.867Z,9.10
2022-10-16T11:47:46.612Z,8.60
2022-10-16T11:50:24.687Z,6.70
2022-10-16T11:53:03.875Z,7.70
2022-10-16T11:55:41.866Z,8.30
2022-10-16T11:58:26.301Z,9.40
2022-10-16T12:01:05.836Z,8.30
2022-10-16T12:03:50.674Z,10.00
2022-10-16T12:06:37.290Z,9.50
2022-10-16T12:09:15.595Z,7.90
2022-10-16T12:11:47.736Z,7.40
2022-10-16T12:15:03.792Z,9.40
2022-10-16T12:17:43.184Z,9.00
2022-10-16T12:20:33.108Z,7.20
2022-10-16T12:23:07.461Z,6.40
2022-10-16T12:25:47.632Z,6.60
2022-10-16T12:28:28.572Z,6.30
2022-10-16T12:31:03.868Z,8.20
2022-10-16T12:33:37.773Z,6.50
2022-10-16T12:36:15.934Z,7.60
2022-10-16T12:38:54.403Z,8.20
2022-10-16T12:41:31.521Z,8.40
2022-10-16T12:44:03.936Z,6.80
2022-10-16T12:46:43.325Z,7.60
2022-10-16T12:49:39.690Z,8.10
2022-10-16T12:52:30.245Z,8.70
2022-10-16T12:55:02.675Z,8.10
2022-10-16T12:57:54.025Z,8.20
2022-10-16T13:00:33.735Z,7.80
2022-10-16T13:03:39.080Z,7.40
2022-10-16T13:06:21.387Z,8.00
2022-10-16T13:09:10.303Z,7.60
2022-10-16T13:12:08.265Z,8.50
2022-10-16T13:15:04.989Z,8.60
2022-10-16T13:17:44.965Z,5.80
2022-10-16T13:20:23.780Z,7.50
2022-10-16T13:23:05.977Z,6.80
2022-10-16T13:25:53.288Z,8.00
2022-10-16T13:28:30.746Z,8.60
2022-10-16T13:31:04.944Z,8.60
2022-10-16T13:33:41.578Z,7.80
2022-10-16T13:36:24.949Z,9.50
2022-10-16T13:39:14.900Z,7.40
2022-10-16T13:41:47.770Z,9.50
2022-10-16T13:44:23.006Z,7.30
2022-10-16T13:47:03.923Z,7.40
2022-10-16T13:49:36.701Z,7.60
2022-10-16T13:52:19.068Z,8.80
2022-10-16T13:54:51.388Z,6.10
2022-10-16T13:57:27.719Z,7.10
2022-10-16T14:00:00.253Z,7.20
2022-10-16T14:02:36.408Z,7.00
2022-10-16T14:05:14.465Z,6.30
2022-10-16T14:07:51.132Z,6.60
2022-10-16T14:10:31.102Z,6.30
2022-10-16T14:13:05.771Z,7.30
2022-10-16T14:15:39.416Z,5.80
2022-10-16T14:18:23.753Z,5.70
2022-10-16T14:21:00.873Z,5.30
2022-10-16T14:23:36.601Z,9.00
2022-10-16T14:26:21.249Z,6.00
2022-10-16T14:29:07.113Z,6.10
2022-10-16T14:31:40.887Z,6.80
2022-10-16T14:34:28.592Z,6.80
2022-10-16T14:39:41.803Z,5.20
2022-10-16T14:42:20.295Z,7.80
2022-10-16T14:44:53.928Z,5.70
2022-10-16T14:47:28.987Z,7.20
2022-10-16T14:50:01.257Z,5.90
2022-10-16T14:52:33.384Z,5.80
2022-10-16T14:55:05.854Z,4.80
2022-10-16T14:57:40.758Z,6.30
2022-10-16T15:00:22.144Z,5.90
2022-10-16T15:02:54.605Z,7.40
2022-10-16T15:05:28.343Z,6.20
2022-10-16T15:08:00.447Z,5.40
2022-10-16T15:10:33.772Z,7.10
2022-10-16T15:13:06.063Z,6.60
2022-10-16T15:15:43.909Z,5.00
2022-10-16T15:18:21.230Z,6.50
2022-10-16T15:20:55.139Z,5.30
2022-10-16T15:23:27.437Z,5.20
2022-10-16T15:26:00.585Z,6.40
2022-10-16T15:28:32.978Z,5.40
2022-10-16T15:31:06.647Z,5.50
2022-10-16T15:33:40.027Z,6.00
2022-10-16T15:36:13.307Z,6.80
2022-10-16T15:38:46.540Z,5.70
2022-10-16T15:41:18.664Z,5.70
2022-10-16T15:43:52.004Z,6.80
2022-10-16T15:46:27.651Z,7.00
2022-10-16T15:51:34.163Z,6.00
2022-10-16T15:54:06.800Z,5.70
2022-10-16T15:56:39.070Z,7.00
2022-10-16T15:59:11.505Z,7.60
2022-10-16T16:01:44.024Z,5.50
2022-10-16T16:04:42.213Z,6.80
2022-10-16T16:07:10.046Z,6.70
2022-10-16T16:09:42.423Z,5.80
2022-10-16T16:12:14.591Z,5.60
2022-10-16T16:14:49.765Z,5.50
2022-10-16T16:17:21.915Z,5.80
2022-10-16T16:19:54.140Z,8.60
2022-10-16T16:22:27.149Z,6.10
2022-10-16T16:24:59.560Z,6.70
2022-10-16T16:27:34.595Z,7.50
2022-10-16T16:30:08.406Z,5.40
2022-10-16T16:32:40.752Z,7.30
2022-10-16T16:35:13.298Z,6.50
2022-10-16T16:37:45.456Z,8.10
2022-10-16T16:40:17.778Z,7.10
2022-10-16T16:42:51.488Z,7.50
2022-10-16T16:45:23.724Z,7.10
2022-10-16T16:47:55.859Z,7.10
2022-10-16T16:50:27.996Z,8.20
2022-10-16T16:53:00.588Z,8.20
2022-10-16T16:55:32.794Z,8.40
2022-10-16T16:58:05.731Z,6.90
2022-10-16T17:00:37.851Z,7.80
2022-10-16T17:03:10.937Z,9.80
2022-10-16T17:05:43.541Z,8.90
2022-10-16T17:08:16.790Z,9.90
2022-10-16T17:10:53.735Z,9.80
2022-10-16T17:13:26.929Z,9.30
2022-10-16T17:15:59.635Z,9.80
2022-10-16T17:18:31.792Z,9.00
2022-10-16T17:21:05.441Z,9.90
2022-10-16T17:23:39.169Z,7.50
2022-10-16T17:26:13.434Z,10.10
2022-10-16T17:28:46.392Z,8.60
2022-10-16T17:31:21.104Z,10.20
2022-10-16T17:33:53.424Z,12.70
2022-10-16T17:36:29.744Z,9.00
2022-10-16T17:39:04.681Z,10.20
2022-10-16T17:41:38.433Z,8.60
2022-10-16T17:44:13.593Z,8.90
2022-10-16T17:46:45.824Z,7.90
2022-10-16T17:49:18.457Z,9.00
2022-10-16T17:51:53.437Z,10.10
2022-10-16T17:54:25.682Z,10.10
2022-10-16T17:56:57.873Z,11.10
2022-10-16T17:59:30.124Z,10.80
2022-10-16T18:02:02.318Z,8.10
2022-10-16T18:04:34.581Z,9.90
2022-10-16T18:07:06.737Z,9.50
2022-10-16T18:09:49.558Z,12.70
2022-10-16T18:12:31.225Z,10.00
2022-10-16T18:15:03.541Z,9.50
2022-10-16T18:17:39.004Z,9.10
2022-10-16T18:20:12.951Z,9.80
2022-10-16T18:22:45.096Z,10.50
2022-10-16T18:25:17.329Z,10.60
2022-10-16T18:27:49.505Z,9.30
2022-10-16T18:30:22.744Z,9.30
2022-10-16T18:32:55.000Z,10.00
2022-10-16T18:35:27.257Z,8.30
2022-10-16T18:38:00.780Z,7.90
2022-10-16T18:40:33.015Z,8.00
2022-10-16T18:43:05.077Z,7.80
2022-10-16T18:45:37.410Z,6.70
2022-10-16T18:48:10.206Z,7.90
2022-10-16T18:50:42.333Z,6.60
2022-10-16T18:53:15.208Z,7.40
2022-10-16T18:55:54.439Z,6.30
2022-10-16T18:58:26.639Z,6.70
2022-10-16T19:01:03.827Z,9.00
2022-10-16T19:03:36.173Z,8.20
2022-10-16T19:06:10.730Z,6.30
2022-10-16T19:08:44.264Z,5.90
2022-10-16T19:11:18.906Z,8.40
2022-10-16T19:13:52.181Z,9.80
2022-10-16T19:16:26.815Z,12.20
2022-10-16T19:19:01.134Z,7.70
2022-10-16T19:21:35.958Z,9.30
2022-10-16T19:24:09.543Z,7.20
2022-10-16T19:26:42.274Z,7.40
2022-10-16T19:29:14.963Z,8.30
2022-10-16T19:31:47.109Z,9.60
2022-10-16T19:34:19.218Z,9.60
2022-10-16T19:36:54.257Z,8.50
2022-10-16T19:39:26.544Z,8.10
2022-10-16T19:41:58.692Z,8.20
2022-10-16T19:44:30.863Z,8.20
2022-10-16T19:47:03.193Z,7.10
2022-10-16T19:49:35.370Z,8.30
2022-10-16T19:52:07.599Z,7.80
2022-10-16T19:54:39.743Z,8.60
2022-10-16T19:57:12.025Z,6.10
2022-10-16T19:59:45.663Z,8.40
2022-10-16T20:02:18.153Z,8.80
2022-10-16T20:04:50.237Z,6.40
2022-10-16T20:07:23.597Z,8.00
2022-10-16T20:09:57.014Z,6.40
2022-10-16T20:12:29.424Z,7.20
2022-10-16T20:15:02.232Z,9.90
2022-10-16T20:17:34.360Z,8.10
2022-10-16T20:20:07.697Z,6.40
2022-10-16T20:22:39.844Z,6.30
2022-10-16T20:25:15.487Z,7.70
2022-10-16T20:27:50.862Z,7.30
2022-10-16T20:30:22.961Z,6.90
2022-10-16T20:32:56.847Z,7.60
2022-10-16T20:35:29.139Z,8.10
2022-10-16T20:38:01.272Z,7.50
2022-10-16T20:40:35.085Z,9.40
2022-10-16T20:43:08.823Z,6.00
2022-10-16T20:45:41.052Z,6.90
2022-10-16T20:48:14.004Z,7.30
2022-10-16T20:50:46.138Z,6.90
2022-10-16T20:53:18.332Z,10.00
2022-10-16T20:55:50.466Z,9.80
2022-10-16T20:58:22.585Z,8.70
2022-10-16T21:00:54.752Z,5.70
2022-10-16T21:03:26.948Z,6.50
2022-10-16T21:06:00.095Z,7.50
2022-10-16T21:08:35.521Z,6.90
2022-10-16T21:11:15.395Z,9.80
2022-10-16T21:13:48.332Z,7.70
2022-10-16T21:16:20.684Z,8.00
2022-10-16T21:18:53.790Z,8.80
2022-10-16T21:21:27.592Z,8.40
2022-10-16T21:24:01.814Z,7.50
2022-10-16T21:26:34.489Z,7.90
2022-10-16T21:29:08.553Z,7.70
2022-10-16T21:31:41.469Z,9.70
2022-10-16T21:34:13.729Z,9.10
2022-10-16T21:36:45.840Z,8.60
2022-10-16T21:39:21.215Z,12.40
2022-10-16T21:41:53.561Z,11.80
2022-10-16T21:44:25.665Z,11.50
2022-10-16T21:46:57.823Z,13.90
2022-10-16T21:49:30.189Z,14.50
2022-10-16T21:52:02.312Z,14.40
2022-10-16T21:54:34.903Z,12.90
2022-10-16T21:57:07.254Z,13.40
2022-10-16T21:59:39.526Z,16.90
2022-10-16T22:02:11.629Z,14.70
2022-10-16T22:04:43.766Z,16.80
2022-10-16T22:07:15.965Z,16.10
2022-10-16T22:09:48.143Z,14.40
2022-10-16T22:12:20.767Z,17.00
2022-10-16T22:14:53.032Z,13.00
2022-10-16T22:17:25.474Z,15.50
2022-10-16T22:19:57.930Z,14.70
2022-10-16T22:22:30.035Z,13.80
2022-10-16T22:25:02.169Z,13.60
2022-10-16T22:27:34.284Z,13.30
2022-10-16T22:30:07.153Z,13.90
2022-10-16T22:32:39.557Z,13.40
2022-10-16T22:35:12.839Z,14.90
2022-10-16T22:37:46.698Z,13.60
2022-10-16T22:40:18.976Z,12.50
2022-10-16T22:42:51.138Z,13.20
2022-10-16T22:45:23.297Z,14.60
2022-10-16T22:47:55.434Z,14.70
2022-10-16T22:50:28.078Z,17.40
2022-10-16T22:53:00.232Z,11.80
2022-10-16T22:55:32.424Z,13.60
2022-10-16T22:58:04.492Z,12.20
2022-10-16T23:00:36.777Z,17.20
2022-10-16T23:03:09.000Z,14.40
2022-10-16T23:05:43.662Z,13.80
2022-10-16T23:08:15.826Z,13.20
2022-10-16T23:10:49.861Z,13.90
2022-10-16T23:13:21.966Z,13.60
2022-10-16T23:15:54.120Z,12.70
2022-10-16T23:18:26.273Z,13.90
2022-10-16T23:20:58.413Z,15.80
2022-10-16T23:23:30.563Z,15.40
2022-10-16T23:26:02.813Z,13.40
2022-10-16T23:28:35.019Z,15.40
2022-10-16T23:31:09.208Z,16.00
2022-10-16T23:33:42.403Z,15.30
2022-10-16T23:36:16.907Z,13.90
2022-10-16T23:38:50.303Z,15.50
2022-10-16T23:41:23.100Z,16.10
2022-10-16T23:43:55.296Z,14.00
2022-10-16T23:46:27.439Z,17.70
2022-10-16T23:48:59.590Z,15.40
2022-10-16T23:51:31.764Z,16.00
2022-10-16T23:54:04.010Z,15.20
2022-10-16T23:56:36.118Z,16.50
2022-10-16T23:59:08.266Z,13.70
